Ana Sayfa
METAR-TAF:

METAR-TAF

Havaalanları :

Olean, New York, Amerika Birleşik Devletleri

Enlem: 42-14-28N, Boylam: 078-22-17W, yükseklik: 651 m

Güncel hava durumu gözlemi

Rapor saat 09:35 UTC de 5 dakika önce yapıldı.
Rüzgar batı/güneybatıdan 5 kt ve 18 kt'a kadar ani rüzgarlar
Sıcaklık -10°C
Nem 92%
Basınç 1004 hPa
Görüş mesafesi: 2.4 km
1600 ft yükseklikte çok bulutlu
hafif kar

METAR: KOLE 280935Z AUTO 24005G18KT 1 1/2SM -SN OVC016 M10/M11 A2966 RMK AO2 VIS 1/2V2 1/2

Saat: 04:40 (09:40 UTC)


TAF: eksik

4.000'den fazla havaalanı için hava durumu gözlemleri ve tahminleri (METAR ve TAF raporları).

Kullanılabilir istasyonlar harita üzerinde sarı ve kırmızı noktalarla gösterilir.

İstasyonun adını görmek için fareyi noktanın üzerinde gezdirin.

Sonrasında hava gözlem ve tahminlerini görmek için tıklayın.

Haritayı değiştirmek için: yaklaştırmak için siyah artı işaretli yeşil düğmeye ve uzaklaştırmak için de eksi işaretli düğmeye hızla tıklayın; bitişik haritalar için yeşil okları kullanın.


METAR-TAF: